Aleksandr Zhitnik — EMBN — position and weather

sailwx.info

Track history (hours):
 
Tides and Currents Weather Stations Pressure Air Temp Water Temp Dewpoint Dewpoint Depression Visibility Wind Speed Wind Dir Waves Ship Positions

Aleksandr Zhitnik

Last reported at 2016-May-17 08:04 UTC. Time now 2016-May-28 20:44 UTC.
Position N 46°32' E 032°04'.
Warning: this ship's position is 11 days out of date.

Length 85 m; draft 2 m.

Type: Cargo ship. MMSI: 272089600.

Date/timePositionNaut miles runAvg speedWind from/ knotsBaromVisibWave heightAir tempDewpointWater temp
2016-May-17 08:04N 46°32' E 032°04'3 5.0
2016-May-17 07:34N 46°33' E 032°01'5 5.0
2016-May-17 06:33N 46°34' E 031°54'5 5.0
2016-May-17 05:29N 46°36' E 031°46'23 5.3
2016-May-17 01:13N 46°30' E 031°15'4 6.5
2016-May-17 00:32N 46°27' E 031°09'6 6.5
2016-May-16 23:34N 46°24' E 031°01'6 5.9
2016-May-16 22:34N 46°18' E 031°01'6 6.4
2016-May-16 21:33N 46°13' E 030°54'7 7.0
2016-May-16 20:34N 46°08' E 030°48'  
Track history (hours):
 
Tides and Currents Weather Stations Pressure Air Temp Water Temp Dewpoint Dewpoint Depression Visibility Wind Speed Wind Dir Waves Ship Positions

Aleksandr Zhitnik

Last reported at 2016-May-17 08:04 UTC. Time now 2016-May-28 20:44 UTC.
Position N 46°32' E 032°04'.
Warning: this ship's position is 11 days out of date.

Length 85 m; draft 2 m.

Type: Cargo ship. MMSI: 272089600.

Date/timePositionNaut miles runAvg speedWind from/ knotsBaromVisibWave heightAir tempDewpointWater temp
2016-May-17 08:04N 46°32' E 032°04'3 5.0
2016-May-17 07:34N 46°33' E 032°01'5 5.0
2016-May-17 06:33N 46°34' E 031°54'5 5.0
2016-May-17 05:29N 46°36' E 031°46'23 5.3
2016-May-17 01:13N 46°30' E 031°15'4 6.5
2016-May-17 00:32N 46°27' E 031°09'6 6.5
2016-May-16 23:34N 46°24' E 031°01'6 5.9
2016-May-16 22:34N 46°18' E 031°01'6 6.4
2016-May-16 21:33N 46°13' E 030°54'7 7.0
2016-May-16 20:34N 46°08' E 030°48'  

Dump ship's entire track history